EDDK/CGN METAR and TAF weather

Enter ICAO airport designator
Station Type Date Time Source
EDDK METAR 2020/10/20 17:20 UTC NOAA

EDDK 201720Z 12008KT 9999 -RA FEW011 12/10 Q1011 NOSIG


Station Type Date Time Source
EDDK Decoded METAR 2020/10/20 17:20 UTC NOAA

Koeln / Bonn, Germany (EDDK) 50-52N 007-10E 100M
Oct 20, 2020 - 01:20 PM EDT / 2020.10.20 1720 UTC
Wind: from the ESE (120 degrees) at 9 MPH (8 KT):0
Visibility: greater than 7 mile(s):0
Sky conditions: mostly clear
Weather: light rain
Temperature: 53 F (12 C)
Dew Point: 50 F (10 C)
Relative Humidity: 87%
Pressure (altimeter): 29.85 in. Hg (1011 hPa)
ob: EDDK 201720Z 12008KT 9999 -RA FEW011 12/10 Q1011 NOSIG
cycle: 17

Station Type Date Time Source
EDDK TAF 2020/10/20 18:27 UTC NOAA

TAF EDDK 201700Z 2018/2124 14007KT 9999 SCT040 PROB30
TEMPO 2018/2108 RA
BECMG 2107/2110 16012KT
TEMPO 2110/2115 17015G25KT
BECMG 2115/2118 18007KT

Example: see airport list